createdAt,value
2018-05-08T00:00:08.134Z,24.87
2018-05-08T00:02:35.301Z,7.23
2018-05-08T00:05:01.627Z,8.57
2018-05-08T00:07:27.944Z,7.90
2018-05-08T00:09:54.289Z,14.67
2018-05-08T00:12:20.722Z,5.17
2018-05-08T00:14:47.054Z,16.17
2018-05-08T00:17:13.453Z,18.77
2018-05-08T00:19:40.559Z,19.57
2018-05-08T00:22:06.960Z,15.27
2018-05-08T00:24:33.866Z,11.23
2018-05-08T00:27:00.250Z,14.93
2018-05-08T00:29:26.637Z,13.57
2018-05-08T00:31:53.128Z,5.33
2018-05-08T00:34:19.666Z,11.80
2018-05-08T00:36:46.007Z,9.97
2018-05-08T00:39:12.402Z,5.03
2018-05-08T00:41:38.697Z,14.17
2018-05-08T00:44:05.096Z,13.47
2018-05-08T00:46:32.163Z,5.00
2018-05-08T00:48:58.512Z,8.17
2018-05-08T00:51:24.890Z,6.37
2018-05-08T00:53:51.272Z,11.70
2018-05-08T00:56:17.638Z,6.27
2018-05-08T00:58:45.769Z,4.10
2018-05-08T01:01:12.864Z,11.37
2018-05-08T01:03:39.223Z,9.73
2018-05-08T01:06:05.592Z,10.83
2018-05-08T01:08:31.982Z,9.43
2018-05-08T01:10:58.293Z,7.97
2018-05-08T01:13:24.597Z,7.47
2018-05-08T01:15:51.709Z,13.53
2018-05-08T01:18:18.960Z,7.67
2018-05-08T01:20:45.324Z,4.83
2018-05-08T01:23:11.720Z,13.00
2018-05-08T01:25:38.214Z,15.50
2018-05-08T01:28:04.605Z,12.50
2018-05-08T01:30:31.663Z,10.33
2018-05-08T01:32:58.741Z,17.30
2018-05-08T01:35:25.097Z,4.03
2018-05-08T01:37:51.441Z,4.67
2018-05-08T01:40:17.825Z,3.60
2018-05-08T01:42:44.142Z,3.97
2018-05-08T01:45:10.533Z,6.30
2018-05-08T01:47:36.848Z,5.97
2018-05-08T01:50:03.244Z,3.87
2018-05-08T01:52:29.697Z,4.30
2018-05-08T01:54:56.043Z,14.57
2018-05-08T01:57:22.394Z,6.60
2018-05-08T01:59:48.769Z,5.53
2018-05-08T02:02:15.085Z,16.50
2018-05-08T02:04:41.416Z,4.17
2018-05-08T02:07:07.885Z,3.70
2018-05-08T02:09:34.310Z,4.00
2018-05-08T02:12:00.638Z,3.70
2018-05-08T02:14:26.985Z,3.87
2018-05-08T02:16:53.343Z,3.67
2018-05-08T02:19:19.760Z,8.70
2018-05-08T02:21:46.848Z,9.90
2018-05-08T02:24:13.157Z,9.80
2018-05-08T02:26:40.237Z,5.67
2018-05-08T02:29:06.573Z,7.03
2018-05-08T02:31:32.889Z,3.73
2018-05-08T02:33:59.965Z,8.30
2018-05-08T02:36:27.061Z,4.67
2018-05-08T02:38:53.419Z,3.80
2018-05-08T02:41:19.769Z,5.20
2018-05-08T02:43:46.126Z,6.60
2018-05-08T02:46:12.527Z,9.63
2018-05-08T02:48:38.938Z,6.97
2018-05-08T02:51:05.285Z,3.17
2018-05-08T02:53:31.670Z,7.70
2018-05-08T02:55:58.007Z,9.27
2018-05-08T02:58:24.344Z,7.00
2018-05-08T03:00:50.679Z,5.30
2018-05-08T03:03:17.756Z,6.90
2018-05-08T03:05:44.054Z,4.90
2018-05-08T03:08:10.440Z,5.97
2018-05-08T03:10:36.811Z,9.20
2018-05-08T03:13:03.165Z,5.73
2018-05-08T03:15:29.461Z,3.30
2018-05-08T03:17:55.801Z,4.37
2018-05-08T03:20:22.117Z,6.43
2018-05-08T03:22:48.431Z,5.47
2018-05-08T03:25:14.792Z,5.30
2018-05-08T03:27:41.097Z,4.63
2018-05-08T03:30:07.435Z,5.57
2018-05-08T03:32:33.768Z,5.50
2018-05-08T03:35:00.169Z,6.13
2018-05-08T03:37:26.518Z,5.40
2018-05-08T03:39:52.865Z,5.37
2018-05-08T03:42:19.249Z,4.70
2018-05-08T03:44:46.374Z,5.10
2018-05-08T03:47:12.779Z,7.10
2018-05-08T03:49:39.099Z,3.80
2018-05-08T03:52:05.493Z,4.50
2018-05-08T03:54:31.858Z,6.93
2018-05-08T03:56:58.163Z,7.60
2018-05-08T03:59:24.533Z,6.47
2018-05-08T04:02:03.160Z,6.27
2018-05-08T04:04:41.803Z,7.47
2018-05-08T04:07:21.450Z,6.63
2018-05-08T04:09:47.951Z,5.70
2018-05-08T04:12:14.287Z,5.77
2018-05-08T04:14:41.415Z,8.47
2018-05-08T04:17:07.896Z,5.60
2018-05-08T04:19:34.181Z,5.70
2018-05-08T04:22:00.546Z,5.00
2018-05-08T04:24:26.886Z,6.43
2018-05-08T04:26:53.209Z,5.03
2018-05-08T04:29:19.583Z,5.37
2018-05-08T04:31:45.878Z,5.23
2018-05-08T04:34:12.187Z,4.30
2018-05-08T04:36:39.321Z,5.13
2018-05-08T04:39:05.961Z,5.87
2018-05-08T04:41:32.308Z,7.50
2018-05-08T04:43:58.703Z,7.07
2018-05-08T04:46:25.070Z,4.60
2018-05-08T04:48:51.464Z,5.17
2018-05-08T04:51:17.900Z,4.00
2018-05-08T04:53:44.337Z,4.87
2018-05-08T04:56:10.681Z,6.27
2018-05-08T04:58:37.092Z,7.30
2018-05-08T05:01:03.589Z,8.63
2018-05-08T05:03:30.715Z,4.20
2018-05-08T05:05:57.160Z,4.60
2018-05-08T05:08:23.787Z,11.40
2018-05-08T05:10:55.221Z,4.80
2018-05-08T05:13:21.665Z,5.87
2018-05-08T05:15:48.871Z,7.07
2018-05-08T05:21:11.522Z,6.30
2018-05-08T05:23:37.901Z,8.13
2018-05-08T05:26:04.357Z,7.80
2018-05-08T05:28:30.670Z,5.63
2018-05-08T05:30:57.033Z,5.67
2018-05-08T05:33:23.470Z,4.97
2018-05-08T05:35:49.928Z,5.53
2018-05-08T05:38:16.407Z,7.37
2018-05-08T05:40:42.750Z,7.60
2018-05-08T05:43:09.144Z,7.93
2018-05-08T05:45:36.546Z,6.70
2018-05-08T05:48:02.948Z,8.33
2018-05-08T05:50:29.939Z,7.43
2018-05-08T05:52:56.275Z,5.70
2018-05-08T05:55:23.359Z,7.13
2018-05-08T05:57:53.845Z,6.23
2018-05-08T06:00:20.143Z,6.57
2018-05-08T06:02:46.536Z,9.17
2018-05-08T06:05:13.637Z,6.60
2018-05-08T06:07:40.253Z,6.10
2018-05-08T06:10:06.689Z,7.17
2018-05-08T06:12:33.069Z,6.23
2018-05-08T06:14:59.540Z,5.00
2018-05-08T06:17:26.006Z,6.87
2018-05-08T06:19:52.442Z,8.27
2018-05-08T06:22:18.917Z,8.50
2018-05-08T06:24:46.053Z,9.00
2018-05-08T06:27:12.431Z,10.27
2018-05-08T06:29:38.916Z,12.27
2018-05-08T06:32:05.397Z,11.30
2018-05-08T06:34:32.527Z,6.83
2018-05-08T06:36:58.877Z,9.50
2018-05-08T06:39:25.261Z,10.60
2018-05-08T06:41:51.546Z,10.60
2018-05-08T06:44:18.043Z,7.00
2018-05-08T06:46:44.368Z,7.83
2018-05-08T06:49:11.382Z,17.47
2018-05-08T06:51:39.017Z,11.73
2018-05-08T06:54:05.523Z,9.60
2018-05-08T06:56:31.986Z,13.00
2018-05-08T06:58:58.366Z,9.43
2018-05-08T07:01:24.747Z,18.57
2018-05-08T07:03:51.129Z,10.20
2018-05-08T07:06:17.498Z,8.97
2018-05-08T07:08:44.023Z,7.73
2018-05-08T07:11:10.366Z,8.60
2018-05-08T07:13:36.800Z,9.10
2018-05-08T07:16:03.361Z,8.73
2018-05-08T07:18:29.579Z,10.07
2018-05-08T07:20:55.929Z,9.60
2018-05-08T07:23:22.291Z,9.37
2018-05-08T07:25:48.705Z,7.97
2018-05-08T07:28:15.067Z,9.63
2018-05-08T07:30:41.457Z,9.10
2018-05-08T07:33:07.821Z,8.70
2018-05-08T07:35:34.262Z,8.37
2018-05-08T07:38:00.788Z,9.50
2018-05-08T07:40:27.973Z,5.03
2018-05-08T07:42:54.305Z,10.47
2018-05-08T07:45:20.739Z,13.57
2018-05-08T07:47:47.081Z,4.73
2018-05-08T07:50:14.229Z,5.67
2018-05-08T07:52:40.533Z,12.10
2018-05-08T07:55:06.919Z,8.03
2018-05-08T07:57:33.270Z,12.60
2018-05-08T08:00:00.315Z,4.27
2018-05-08T08:02:26.704Z,6.83
2018-05-08T08:04:53.045Z,9.13
2018-05-08T08:07:19.322Z,7.40
2018-05-08T08:09:45.729Z,5.43
2018-05-08T08:12:12.150Z,6.10
2018-05-08T08:14:39.249Z,7.43
2018-05-08T08:17:06.396Z,5.00
2018-05-08T08:19:32.730Z,7.50
2018-05-08T08:21:59.811Z,7.23
2018-05-08T08:24:26.164Z,5.50
2018-05-08T08:26:52.535Z,4.83
2018-05-08T08:29:19.685Z,11.47
2018-05-08T08:31:46.099Z,6.83
2018-05-08T08:34:12.472Z,3.67
2018-05-08T08:36:38.871Z,9.27
2018-05-08T08:39:06.010Z,4.43
2018-05-08T08:41:32.338Z,11.37
2018-05-08T08:43:58.711Z,5.00
2018-05-08T08:46:25.104Z,8.30
2018-05-08T08:48:51.454Z,4.27
2018-05-08T08:51:17.833Z,4.27
2018-05-08T08:53:44.556Z,7.87
2018-05-08T08:56:10.950Z,3.07
2018-05-08T08:58:38.058Z,3.97
2018-05-08T09:01:04.429Z,5.10
2018-05-08T09:03:30.723Z,5.20
2018-05-08T09:05:57.084Z,3.30
2018-05-08T09:08:23.420Z,5.90
2018-05-08T09:10:49.823Z,5.47
2018-05-08T09:13:16.969Z,4.37
2018-05-08T09:15:45.294Z,7.13
2018-05-08T09:18:12.207Z,6.80
2018-05-08T09:20:39.597Z,3.00
2018-05-08T09:23:06.740Z,6.20
2018-05-08T09:25:33.221Z,6.83
2018-05-08T09:28:06.386Z,3.27
2018-05-08T09:30:33.501Z,6.53
2018-05-08T09:32:59.924Z,6.67
2018-05-08T09:35:26.351Z,4.63
2018-05-08T09:37:52.717Z,4.47
2018-05-08T09:40:19.788Z,4.63
2018-05-08T09:42:46.159Z,4.83
2018-05-08T09:45:13.185Z,4.63
2018-05-08T09:47:40.368Z,6.40
2018-05-08T09:50:06.693Z,4.83
2018-05-08T09:52:33.822Z,4.00
2018-05-08T09:55:00.090Z,7.27
2018-05-08T09:57:27.142Z,4.80
2018-05-08T09:59:54.255Z,6.20
2018-05-08T10:02:20.598Z,7.27
2018-05-08T10:04:47.015Z,8.87
2018-05-08T10:07:14.170Z,6.10
2018-05-08T10:09:41.402Z,5.10
2018-05-08T10:12:07.737Z,6.00
2018-05-08T10:14:35.146Z,8.20
2018-05-08T10:17:02.176Z,8.70
2018-05-08T10:19:28.639Z,5.87
2018-05-08T10:21:55.692Z,10.27
2018-05-08T10:24:22.793Z,3.67
2018-05-08T10:26:49.193Z,8.13
2018-05-08T10:29:16.299Z,3.80
2018-05-08T10:31:43.791Z,4.43
2018-05-08T10:34:10.122Z,10.23
2018-05-08T10:36:36.539Z,7.67
2018-05-08T10:39:02.947Z,4.53
2018-05-08T10:41:29.356Z,8.57
2018-05-08T10:43:55.704Z,6.03
2018-05-08T10:46:22.039Z,5.23
2018-05-08T10:48:48.437Z,7.73
2018-05-08T10:51:14.811Z,3.67
2018-05-08T10:53:41.128Z,6.50
2018-05-08T10:56:07.449Z,8.00
2018-05-08T10:58:33.744Z,5.73
2018-05-08T11:01:00.099Z,8.33
2018-05-08T11:03:26.448Z,7.23
2018-05-08T11:05:52.941Z,12.13
2018-05-08T11:08:19.305Z,7.67
2018-05-08T11:10:46.347Z,8.43
2018-05-08T11:13:12.707Z,6.57
2018-05-08T11:15:39.749Z,6.93
2018-05-08T11:18:06.323Z,7.97
2018-05-08T11:20:33.360Z,8.27
2018-05-08T11:22:59.696Z,5.70
2018-05-08T11:25:26.046Z,7.47
2018-05-08T11:27:52.399Z,12.90
2018-05-08T11:30:18.731Z,13.07
2018-05-08T11:32:45.186Z,11.10
2018-05-08T11:35:11.556Z,7.90
2018-05-08T11:37:40.053Z,10.63
2018-05-08T11:40:06.386Z,12.80
2018-05-08T11:42:33.489Z,17.10
2018-05-08T11:44:59.880Z,11.87
2018-05-08T11:47:26.959Z,11.70
2018-05-08T11:49:53.426Z,9.43
2018-05-08T11:52:19.779Z,6.13
2018-05-08T11:54:46.220Z,12.93
2018-05-08T11:57:13.332Z,9.87
2018-05-08T11:59:39.729Z,6.93
2018-05-08T12:02:06.256Z,10.37
2018-05-08T12:04:32.720Z,8.20
2018-05-08T12:06:59.103Z,11.67
2018-05-08T12:09:25.589Z,11.30
2018-05-08T12:11:52.076Z,5.13
2018-05-08T12:14:18.581Z,6.10
2018-05-08T12:16:45.060Z,8.13
2018-05-08T12:19:11.482Z,5.37
2018-05-08T12:21:37.889Z,4.20
2018-05-08T12:24:05.151Z,6.70
2018-05-08T12:26:31.695Z,7.33
2018-05-08T12:28:58.237Z,7.77
2018-05-08T12:31:24.591Z,8.30
2018-05-08T12:33:51.620Z,6.87
2018-05-08T12:36:18.060Z,13.47
2018-05-08T12:38:45.257Z,10.87
2018-05-08T12:41:11.636Z,9.00
2018-05-08T12:43:38.007Z,5.67
2018-05-08T12:46:04.439Z,6.80
2018-05-08T12:48:30.851Z,8.47
2018-05-08T12:50:57.190Z,5.83
2018-05-08T12:53:23.541Z,8.90
2018-05-08T12:55:50.693Z,4.37
2018-05-08T12:58:17.127Z,10.57
2018-05-08T13:00:43.479Z,7.43
2018-05-08T13:03:09.840Z,8.57
2018-05-08T13:05:37.301Z,11.23
2018-05-08T13:08:03.671Z,6.93
2018-05-08T13:10:30.015Z,7.27
2018-05-08T13:12:56.396Z,7.93
2018-05-08T13:15:22.763Z,10.13
2018-05-08T13:17:49.969Z,12.27
2018-05-08T13:20:17.194Z,10.93
2018-05-08T13:22:43.630Z,12.20
2018-05-08T13:25:10.015Z,8.90
2018-05-08T13:27:37.132Z,5.10
2018-05-08T13:30:03.642Z,5.77
2018-05-08T13:32:29.980Z,6.43
2018-05-08T13:34:56.443Z,9.37
2018-05-08T13:37:22.843Z,3.60
2018-05-08T13:39:50.039Z,6.20
2018-05-08T13:42:16.365Z,7.43
2018-05-08T13:44:43.425Z,7.00
2018-05-08T13:47:10.521Z,6.67
2018-05-08T13:49:36.990Z,7.90
2018-05-08T13:52:03.356Z,8.40
2018-05-08T13:54:29.673Z,10.13
2018-05-08T13:56:56.071Z,5.43
2018-05-08T13:59:22.432Z,4.40
2018-05-08T14:01:48.761Z,5.23
2018-05-08T14:04:15.121Z,6.40
2018-05-08T14:06:41.670Z,9.60
2018-05-08T14:09:07.961Z,6.83
2018-05-08T14:11:34.335Z,5.27
2018-05-08T14:14:01.466Z,5.30
2018-05-08T14:16:27.848Z,7.53
2018-05-08T14:18:54.250Z,5.27
2018-05-08T14:21:20.631Z,5.73
2018-05-08T14:23:47.733Z,5.03
2018-05-08T14:26:14.272Z,5.30
2018-05-08T14:28:40.600Z,4.33
2018-05-08T14:31:06.931Z,4.97
2018-05-08T14:33:33.953Z,4.63
2018-05-08T14:36:00.272Z,4.63
2018-05-08T14:38:26.669Z,5.40
2018-05-08T14:40:53.024Z,4.90
2018-05-08T14:43:19.331Z,6.87
2018-05-08T14:45:46.655Z,9.93
2018-05-08T14:48:13.254Z,8.53
2018-05-08T14:50:39.651Z,5.33
2018-05-08T14:53:06.026Z,7.10
2018-05-08T14:55:33.234Z,7.37
2018-05-08T14:57:59.652Z,4.87
2018-05-08T15:00:26.119Z,4.70
2018-05-08T15:02:52.504Z,6.73
2018-05-08T15:05:18.975Z,4.93
2018-05-08T15:07:45.303Z,5.37
2018-05-08T15:10:11.724Z,4.07
2018-05-08T15:12:38.147Z,6.73
2018-05-08T15:15:06.780Z,6.17
2018-05-08T15:17:33.175Z,7.70
2018-05-08T15:19:59.520Z,5.50
2018-05-08T15:22:26.590Z,7.67
2018-05-08T15:24:53.676Z,4.47
2018-05-08T15:27:20.063Z,6.93
2018-05-08T15:29:46.574Z,8.43
2018-05-08T15:32:12.903Z,8.00
2018-05-08T15:34:40.398Z,7.50
2018-05-08T15:37:08.047Z,7.03
2018-05-08T15:39:34.389Z,5.87
2018-05-08T15:42:00.790Z,8.63
2018-05-08T15:44:27.088Z,7.73
2018-05-08T15:46:53.420Z,6.50
2018-05-08T15:49:21.636Z,6.00
2018-05-08T15:51:49.162Z,5.90
2018-05-08T15:54:16.286Z,7.07
2018-05-08T15:56:42.656Z,9.47
2018-05-08T15:59:09.713Z,7.73
2018-05-08T16:01:36.163Z,6.60
2018-05-08T16:04:03.351Z,6.10
2018-05-08T16:06:29.693Z,5.83
2018-05-08T16:08:57.876Z,5.90
2018-05-08T16:11:24.393Z,5.63
2018-05-08T16:13:52.509Z,4.77
2018-05-08T16:16:19.641Z,4.93
2018-05-08T16:18:45.968Z,4.53
2018-05-08T16:21:12.678Z,5.97
2018-05-08T16:23:39.033Z,7.83
2018-05-08T16:26:05.394Z,6.33
2018-05-08T16:28:31.723Z,6.17
2018-05-08T16:30:58.157Z,6.20
2018-05-08T16:33:24.519Z,4.30
2018-05-08T16:35:50.878Z,3.70
2018-05-08T16:38:17.216Z,6.43
2018-05-08T16:40:43.689Z,5.00
2018-05-08T16:43:10.104Z,5.27
2018-05-08T16:45:36.416Z,4.47
2018-05-08T16:48:02.844Z,5.67
2018-05-08T16:50:29.874Z,7.73
2018-05-08T16:52:57.085Z,7.77
2018-05-08T16:55:23.396Z,6.60
2018-05-08T16:57:49.717Z,4.40
2018-05-08T17:00:16.093Z,4.70
2018-05-08T17:02:43.190Z,5.97
2018-05-08T17:05:09.557Z,4.20
2018-05-08T17:07:35.941Z,6.40
2018-05-08T17:10:03.180Z,5.67
2018-05-08T17:12:30.337Z,4.97
2018-05-08T17:14:56.633Z,6.50
2018-05-08T17:17:23.011Z,4.47
2018-05-08T17:19:49.456Z,4.03
2018-05-08T17:22:15.836Z,6.50
2018-05-08T17:24:42.266Z,6.90
2018-05-08T17:27:08.626Z,5.70
2018-05-08T17:29:36.058Z,5.73
2018-05-08T17:32:06.085Z,4.50
2018-05-08T17:34:32.395Z,4.43
2018-05-08T17:36:58.732Z,4.17
2018-05-08T17:39:25.739Z,4.20
2018-05-08T17:41:52.098Z,4.43
2018-05-08T17:44:18.472Z,5.00
2018-05-08T17:46:45.798Z,4.80
2018-05-08T17:49:12.256Z,5.27
2018-05-08T17:51:38.574Z,4.03
2018-05-08T17:54:04.893Z,5.70
2018-05-08T17:56:31.264Z,5.40
2018-05-08T17:58:57.661Z,4.60
2018-05-08T18:01:24.767Z,4.10
2018-05-08T18:03:51.091Z,4.57
2018-05-08T18:06:17.462Z,5.20
2018-05-08T18:08:43.786Z,6.93
2018-05-08T18:11:10.126Z,6.07
2018-05-08T18:13:36.428Z,6.07
2018-05-08T18:16:02.817Z,4.90
2018-05-08T18:18:29.142Z,4.07
2018-05-08T18:20:55.481Z,6.33
2018-05-08T18:23:22.644Z,5.07
2018-05-08T18:25:48.983Z,4.27
2018-05-08T18:28:17.026Z,7.13
2018-05-08T18:30:43.385Z,9.27
2018-05-08T18:33:09.795Z,5.07
2018-05-08T18:35:36.191Z,4.53
2018-05-08T18:38:03.348Z,4.17
2018-05-08T18:40:37.257Z,4.37
2018-05-08T18:43:03.646Z,4.73
2018-05-08T18:45:30.432Z,4.77
2018-05-08T18:47:56.806Z,8.97
2018-05-08T18:50:23.218Z,8.53
2018-05-08T18:52:49.548Z,6.90
2018-05-08T18:55:16.919Z,16.93
2018-05-08T18:57:43.305Z,7.10
2018-05-08T19:00:15.849Z,6.83
2018-05-08T19:02:42.320Z,6.83
2018-05-08T19:05:08.939Z,5.70
2018-05-08T19:07:35.436Z,5.13
2018-05-08T19:10:01.912Z,5.33
2018-05-08T19:12:28.213Z,6.10
2018-05-08T19:15:00.872Z,6.43
2018-05-08T19:17:27.935Z,9.17
2018-05-08T19:20:00.390Z,7.03
2018-05-08T19:22:27.454Z,5.90
2018-05-08T19:24:54.504Z,5.93
2018-05-08T19:27:21.722Z,5.60
2018-05-08T19:29:54.922Z,5.20
2018-05-08T19:32:22.031Z,6.10
2018-05-08T19:34:55.327Z,6.27
2018-05-08T19:37:28.427Z,7.13
2018-05-08T19:39:54.898Z,4.80
2018-05-08T19:42:21.946Z,8.30
2018-05-08T19:44:49.018Z,14.97
2018-05-08T19:47:15.401Z,7.27
2018-05-08T19:49:41.970Z,6.47
2018-05-08T19:52:09.119Z,5.10
2018-05-08T19:54:35.522Z,6.30
2018-05-08T19:57:01.831Z,5.40
2018-05-08T19:59:28.294Z,4.17
2018-05-08T20:01:55.506Z,5.23
2018-05-08T20:04:22.002Z,5.20
2018-05-08T20:06:49.171Z,4.67
2018-05-08T20:09:16.302Z,4.10
2018-05-08T20:11:43.450Z,4.60
2018-05-08T20:14:09.887Z,5.20
2018-05-08T20:16:36.305Z,6.03
2018-05-08T20:19:02.661Z,6.80
2018-05-08T20:21:29.007Z,4.50
2018-05-08T20:23:55.334Z,6.30
2018-05-08T20:26:21.737Z,5.03
2018-05-08T20:28:48.783Z,6.97
2018-05-08T20:31:15.199Z,6.10
2018-05-08T20:33:42.249Z,7.70
2018-05-08T20:36:08.747Z,6.20
2018-05-08T20:38:35.063Z,4.53
2018-05-08T20:41:01.404Z,4.90
2018-05-08T20:43:27.740Z,10.10
2018-05-08T20:45:54.098Z,11.93
2018-05-08T20:48:20.483Z,8.27
2018-05-08T20:50:46.924Z,4.80
2018-05-08T20:53:13.386Z,6.17
2018-05-08T20:55:40.475Z,10.57
2018-05-08T20:58:07.547Z,9.00
2018-05-08T21:00:33.975Z,8.17
2018-05-08T21:03:00.300Z,17.67
2018-05-08T21:05:27.387Z,38.80
2018-05-08T21:07:53.894Z,48.10
2018-05-08T21:10:20.281Z,39.50
2018-05-08T21:12:47.455Z,23.10
2018-05-08T21:15:13.964Z,12.97
2018-05-08T21:17:40.349Z,9.20
2018-05-08T21:20:07.334Z,8.90
2018-05-08T21:22:33.685Z,12.90
2018-05-08T21:25:00.039Z,18.77
2018-05-08T21:27:32.392Z,24.97
2018-05-08T21:30:04.864Z,12.83
2018-05-08T21:32:31.225Z,11.73
2018-05-08T21:34:57.484Z,6.67
2018-05-08T21:37:23.801Z,5.07
2018-05-08T21:39:50.276Z,9.67
2018-05-08T21:42:16.511Z,8.57
2018-05-08T21:44:43.661Z,10.37
2018-05-08T21:47:09.992Z,9.23
2018-05-08T21:49:36.378Z,24.50
2018-05-08T21:52:02.710Z,38.73
2018-05-08T21:54:30.091Z,12.17
2018-05-08T21:56:56.416Z,48.47
2018-05-08T21:59:22.771Z,68.67
2018-05-08T22:01:49.107Z,60.33
2018-05-08T22:04:15.460Z,46.20
2018-05-08T22:06:41.761Z,25.93
2018-05-08T22:09:08.033Z,15.47
2018-05-08T22:11:34.388Z,35.37
2018-05-08T22:14:00.699Z,15.13
2018-05-08T22:16:27.079Z,12.37
2018-05-08T22:18:53.423Z,9.77
2018-05-08T22:21:19.691Z,11.07
2018-05-08T22:23:46.054Z,18.10
2018-05-08T22:26:12.371Z,15.27
2018-05-08T22:28:38.700Z,27.77
2018-05-08T22:31:05.703Z,18.30
2018-05-08T22:33:32.113Z,47.47
2018-05-08T22:35:59.245Z,25.30
2018-05-08T22:38:25.524Z,19.53
2018-05-08T22:40:52.546Z,20.83
2018-05-08T22:43:18.872Z,23.23
2018-05-08T22:45:45.271Z,24.20
2018-05-08T22:48:16.144Z,23.87
2018-05-08T22:50:42.693Z,11.00
2018-05-08T22:53:08.995Z,7.03
2018-05-08T22:55:36.020Z,6.30
2018-05-08T22:58:02.408Z,7.73
2018-05-08T23:00:28.687Z,8.87
2018-05-08T23:02:55.006Z,6.60
2018-05-08T23:05:21.404Z,14.07
2018-05-08T23:07:47.703Z,7.27
2018-05-08T23:10:14.069Z,16.77
2018-05-08T23:12:40.416Z,24.10
2018-05-08T23:15:06.740Z,12.97
2018-05-08T23:17:33.103Z,8.77
2018-05-08T23:19:59.514Z,8.43
2018-05-08T23:22:26.599Z,6.53
2018-05-08T23:24:52.917Z,10.30
2018-05-08T23:27:20.117Z,18.87
2018-05-08T23:29:46.809Z,20.47
2018-05-08T23:32:13.368Z,22.93
2018-05-08T23:34:39.675Z,18.47
2018-05-08T23:37:05.944Z,22.80
2018-05-08T23:39:32.285Z,24.33
2018-05-08T23:41:59.596Z,20.93
2018-05-08T23:44:25.898Z,20.23
2018-05-08T23:46:52.234Z,15.37
2018-05-08T23:49:18.555Z,13.13
2018-05-08T23:51:45.007Z,12.07
2018-05-08T23:54:11.320Z,23.63
2018-05-08T23:56:37.663Z,8.80
2018-05-08T23:59:04.036Z,9.33
